Time;durP1;ratioP1;P1;durP2;ratioP2;P2;SDS_P1;SDS_P2;PMS_P1;PMS_P2;Temp;Humidity;BMP_temperature;BMP_pressure;BME280_temperature;BME280_humidity;BME280_pressure;Samples;Min_cycle;Max_cycle;Signal;HPM_P1;HPM_P2
2023/10/01 00:01:35;;;;;;;0.63;0.52;;;18.80;73.20;;;;;;6077518;23;20164;-84
2023/10/01 00:04:04;;;;;;;0.88;0.70;;;18.70;73.20;;;;;;6099131;23;20152;-84
2023/10/01 00:06:30;;;;;;;0.70;0.60;;;18.80;73.20;;;;;;6076596;23;20579;-83
2023/10/01 00:08:57;;;;;;;1.67;0.70;;;18.80;73.30;;;;;;6125324;23;20249;-83
2023/10/01 00:11:25;;;;;;;1.00;0.60;;;18.80;73.20;;;;;;6075102;23;20162;-85
2023/10/01 00:13:53;;;;;;;1.30;0.70;;;18.80;73.20;;;;;;6099474;23;20163;-82
2023/10/01 00:16:19;;;;;;;0.98;0.70;;;18.80;73.20;;;;;;6100115;23;20568;-82
2023/10/01 00:18:47;;;;;;;1.45;0.80;;;18.80;73.30;;;;;;6125245;23;20190;-84
2023/10/01 00:21:17;;;;;;;0.73;0.52;;;18.80;73.20;;;;;;6074481;23;20160;-83
2023/10/01 00:23:45;;;;;;;1.13;0.65;;;18.70;73.30;;;;;;6074159;23;20163;-84
2023/10/01 00:26:15;;;;;;;0.85;0.50;;;18.90;73.40;;;;;;6100464;23;20531;-87
2023/10/01 00:28:42;;;;;;;0.82;0.70;;;18.80;73.20;;;;;;6050418;23;20530;-81
2023/10/01 00:31:08;;;;;;;1.23;0.60;;;18.80;73.30;;;;;;6123370;23;20135;-84
2023/10/01 00:33:38;;;;;;;1.10;0.60;;;18.80;73.30;;;;;;6098976;23;20519;-84
2023/10/01 00:36:06;;;;;;;0.95;0.77;;;18.70;73.30;;;;;;6122998;23;20235;-87
2023/10/01 00:38:37;;;;;;;1.20;0.65;;;18.70;73.30;;;;;;6123247;23;20164;-83
2023/10/01 00:41:04;;;;;;;0.68;0.50;;;18.70;73.30;;;;;;6225449;23;20515;-86
2023/10/01 00:43:30;;;;;;;0.98;0.60;;;18.70;73.40;;;;;;6124004;23;20438;-82
2023/10/01 00:45:59;;;;;;;1.00;0.75;;;18.70;73.40;;;;;;6098823;23;20152;-83
2023/10/01 00:48:25;;;;;;;0.75;0.70;;;18.70;73.40;;;;;;6099957;23;20187;-85
2023/10/01 00:50:52;;;;;;;0.70;0.55;;;18.70;73.40;;;;;;6099127;23;20144;-85
2023/10/01 00:53:20;;;;;;;1.73;0.80;;;18.70;73.40;;;;;;6098265;23;20478;-86
2023/10/01 00:55:48;;;;;;;0.77;0.63;;;18.70;73.60;;;;;;6123568;23;20666;-85
2023/10/01 00:58:18;;;;;;;1.10;0.70;;;18.70;73.50;;;;;;6099119;23;20175;-83
2023/10/01 01:00:45;;;;;;;0.70;0.70;;;18.70;73.50;;;;;;6098935;23;20152;-84
2023/10/01 01:03:18;;;;;;;0.63;0.55;;;18.70;73.60;;;;;;6099273;23;20144;-83
2023/10/01 01:08:33;;;;;;;0.68;0.68;;;18.70;73.60;;;;;;6123264;23;20641;-83
2023/10/01 01:11:01;;;;;;;0.85;0.57;;;18.70;73.50;;;;;;6099658;23;20164;-85
2023/10/01 01:13:30;;;;;;;0.65;0.60;;;18.70;73.60;;;;;;6099187;23;20159;-83
2023/10/01 01:16:00;;;;;;;0.90;0.70;;;18.70;73.60;;;;;;6122643;23;20259;-81
2023/10/01 01:18:27;;;;;;;0.80;0.60;;;18.80;73.70;;;;;;6200341;23;20179;-84
2023/10/01 01:20:58;;;;;;;0.85;0.60;;;18.70;73.70;;;;;;6074733;23;20156;-83
2023/10/01 01:23:25;;;;;;;1.35;0.70;;;18.70;73.50;;;;;;6098950;23;20148;-83
2023/10/01 01:25:52;;;;;;;0.60;0.60;;;18.70;73.60;;;;;;6074890;23;20148;-82
2023/10/01 01:31:04;;;;;;;1.05;0.50;;;18.70;73.70;;;;;;6101970;23;20156;-85
2023/10/01 01:33:32;;;;;;;0.70;0.60;;;18.70;73.70;;;;;;6124070;23;20137;-82
2023/10/01 01:36:03;;;;;;;0.95;0.50;;;18.70;73.60;;;;;;6077031;23;20520;-85
2023/10/01 01:38:37;;;;;;;0.80;0.55;;;18.70;73.70;;;;;;6200833;23;20254;-83
2023/10/01 01:41:04;;;;;;;0.80;0.60;;;18.70;73.80;;;;;;6175675;23;20483;-85
2023/10/01 01:43:31;;;;;;;0.85;0.50;;;18.70;73.80;;;;;;6099875;23;20132;-85
2023/10/01 01:46:00;;;;;;;0.73;0.50;;;18.70;73.70;;;;;;6125761;23;20128;-86
2023/10/01 01:48:30;;;;;;;0.52;0.50;;;18.60;73.50;;;;;;6123960;23;20132;-83
2023/10/01 01:50:58;;;;;;;1.15;0.80;;;18.70;73.60;;;;;;6077287;23;20156;-86
2023/10/01 01:53:35;;;;;;;1.08;0.70;;;18.70;73.50;;;;;;6099160;23;20140;-84
2023/10/01 01:56:04;;;;;;;0.90;0.60;;;18.70;73.70;;;;;;6196417;23;20195;-85
2023/10/01 01:58:39;;;;;;;1.02;0.68;;;18.60;73.70;;;;;;6125528;23;20160;-86
2023/10/01 02:03:46;;;;;;;0.70;0.70;;;18.70;73.80;;;;;;6217884;23;20151;-84
2023/10/01 02:06:13;;;;;;;0.77;0.60;;;18.70;73.80;;;;;;6100077;23;20171;-88
2023/10/01 02:08:48;;;;;;;1.05;0.63;;;18.70;73.80;;;;;;6124110;23;20227;-83
2023/10/01 02:11:14;;;;;;;0.82;0.70;;;18.70;73.80;;;;;;6123671;23;20348;-85
2023/10/01 02:13:45;;;;;;;1.05;0.60;;;18.70;73.80;;;;;;6099998;23;20530;-81
2023/10/01 02:18:57;;;;;;;0.93;0.85;;;18.70;73.80;;;;;;6123910;23;20222;-86
2023/10/01 02:21:42;;;;;;;0.90;0.70;;;18.70;73.80;;;;;;6099926;23;20148;-84
2023/10/01 02:24:14;;;;;;;0.70;0.50;;;18.60;73.80;;;;;;6103294;23;20135;-82
2023/10/01 02:26:41;;;;;;;0.70;0.60;;;18.70;74.00;;;;;;6099681;23;20201;-83
2023/10/01 02:29:16;;;;;;;0.88;0.60;;;18.60;73.90;;;;;;6075703;23;20159;-85
2023/10/01 02:31:53;;;;;;;0.90;0.60;;;18.60;73.70;;;;;;6078585;23;20163;-84
2023/10/01 02:34:23;;;;;;;0.85;0.63;;;18.70;73.80;;;;;;6196688;23;20160;-82
2023/10/01 02:36:49;;;;;;;0.63;0.47;;;18.60;73.80;;;;;;6175018;23;20156;-85
2023/10/01 02:39:27;;;;;;;1.05;0.77;;;18.60;73.80;;;;;;6125074;23;20164;-80
2023/10/01 02:42:10;;;;;;;0.85;0.60;;;18.70;73.90;;;;;;6191831;23;20153;-80
2023/10/01 02:44:38;;;;;;;0.73;0.63;;;18.70;74.70;;;;;;6030063;23;20150;-80
2023/10/01 02:47:20;;;;;;;0.80;0.70;;;18.60;74.00;;;;;;6125940;23;20154;-80
2023/10/01 02:49:49;;;;;;;0.77;0.60;;;18.60;73.80;;;;;;6028471;23;20150;-79
2023/10/01 02:52:22;;;;;;;0.73;0.70;;;18.60;73.90;;;;;;6026597;23;20176;-80
2023/10/01 02:55:00;;;;;;;0.82;0.57;;;18.60;74.10;;;;;;6128123;23;20164;-83
2023/10/01 02:57:33;;;;;;;0.88;0.70;;;18.70;74.00;;;;;;6036249;23;20160;-82
2023/10/01 03:02:53;;;;;;;0.93;0.70;;;18.60;74.00;;;;;;6064132;23;20163;-80
2023/10/01 03:05:28;;;;;;;1.35;0.65;;;18.60;74.00;;;;;;6105922;23;20153;-81
2023/10/01 03:07:56;;;;;;;0.80;0.70;;;18.60;74.00;;;;;;6058397;23;20168;-80
2023/10/01 03:10:25;;;;;;;0.90;0.70;;;18.60;74.00;;;;;;6056046;23;20225;-80
2023/10/01 03:12:57;;;;;;;0.90;0.60;;;18.60;74.10;;;;;;6058021;23;20580;-80
2023/10/01 03:15:25;;;;;;;1.13;0.55;;;18.60;74.10;;;;;;6037838;23;20257;-81
2023/10/01 03:18:08;;;;;;;0.90;0.70;;;18.60;74.00;;;;;;6133444;23;20542;-81
2023/10/01 03:23:11;;;;;;;0.95;0.70;;;18.60;74.20;;;;;;6185321;23;20156;-80
2023/10/01 03:25:55;;;;;;;0.73;0.57;;;18.60;74.10;;;;;;6087279;23;20140;-80
2023/10/01 03:28:28;;;;;;;0.57;0.50;;;18.60;74.10;;;;;;6134599;23;20140;-80
2023/10/01 03:31:01;;;;;;;1.00;0.70;;;18.60;74.10;;;;;;6134729;23;20136;-80
2023/10/01 03:33:31;;;;;;;0.85;0.65;;;18.60;74.20;;;;;;6110777;23;20132;-80
2023/10/01 03:36:02;;;;;;;0.73;0.65;;;18.60;74.10;;;;;;6161469;23;20162;-81
2023/10/01 03:38:32;;;;;;;0.73;0.60;;;18.60;74.20;;;;;;6210453;23;20184;-81
2023/10/01 03:41:02;;;;;;;0.82;0.47;;;18.60;74.10;;;;;;6134507;23;20144;-80
2023/10/01 03:43:32;;;;;;;1.13;0.70;;;18.60;74.10;;;;;;6087531;23;20276;-80
2023/10/01 03:46:13;;;;;;;0.70;0.70;;;18.60;74.10;;;;;;6135108;23;20129;-80
2023/10/01 03:49:00;;;;;;;0.80;0.63;;;18.60;74.20;;;;;;6134153;23;20221;-82
2023/10/01 03:51:29;;;;;;;0.88;0.60;;;18.60;74.20;;;;;;6091246;23;20159;-81
2023/10/01 03:53:59;;;;;;;1.00;0.75;;;18.60;74.30;;;;;;6108791;23;20189;-82
2023/10/01 03:56:30;;;;;;;0.80;0.55;;;18.60;74.20;;;;;;6086962;23;20218;-81
2023/10/01 03:58:58;;;;;;;0.73;0.60;;;18.50;74.20;;;;;;6209937;23;20192;-80
2023/10/01 04:01:58;;;;;;;0.93;0.70;;;18.60;74.30;;;;;;6084578;23;20155;-79
2023/10/01 04:04:15;;;;;;;0.60;0.57;;;18.60;74.30;;;;;;6199007;23;20222;-79
2023/10/01 04:06:44;;;;;;;0.82;0.63;;;18.60;74.30;;;;;;6110159;23;20152;-79
2023/10/01 04:09:09;;;;;;;0.95;0.57;;;18.60;74.30;;;;;;6086564;23;20141;-80
2023/10/01 04:11:52;;;;;;;1.40;0.80;;;18.60;74.30;;;;;;6134680;23;20144;-79
2023/10/01 04:14:23;;;;;;;1.33;0.80;;;18.60;74.40;;;;;;6091442;23;20159;-80
2023/10/01 04:16:56;;;;;;;1.38;0.80;;;18.60;74.40;;;;;;6086815;23;20145;-79
2023/10/01 04:19:24;;;;;;;0.88;0.60;;;18.60;74.30;;;;;;6085681;23;20642;-79
2023/10/01 04:21:55;;;;;;;0.88;0.60;;;18.60;74.30;;;;;;6109514;23;20136;-80
2023/10/01 04:24:22;;;;;;;1.42;0.70;;;18.50;74.20;;;;;;6084298;23;20159;-80
2023/10/01 04:26:48;;;;;;;1.05;0.73;;;18.60;74.30;;;;;;6110141;23;20136;-80
2023/10/01 04:29:19;;;;;;;1.15;0.68;;;18.60;74.30;;;;;;6133802;23;20155;-80
2023/10/01 04:31:49;;;;;;;1.58;0.80;;;18.60;74.40;;;;;;6211323;23;20166;-80
2023/10/01 04:34:15;;;;;;;1.23;0.70;;;18.50;74.40;;;;;;6184722;23;20164;-80
2023/10/01 04:36:44;;;;;;;0.68;0.60;;;18.50;75.20;;;;;;6085114;23;20571;-81
2023/10/01 04:39:14;;;;;;;0.90;0.70;;;18.50;74.50;;;;;;6109935;23;20651;-81
2023/10/01 04:41:41;;;;;;;1.27;0.70;;;18.60;74.50;;;;;;6109395;23;20152;-81
2023/10/01 04:44:13;;;;;;;1.30;0.68;;;18.50;74.30;;;;;;6085396;23;20144;-82
2023/10/01 04:46:41;;;;;;;1.02;0.70;;;18.60;75.20;;;;;;6085570;23;20159;-80
2023/10/01 04:49:27;;;;;;;0.90;0.68;;;18.50;74.30;;;;;;6109448;23;20182;-80
2023/10/01 04:52:00;;;;;;;1.13;0.70;;;18.50;74.40;;;;;;6112698;23;20141;-81
2023/10/01 04:54:28;;;;;;;0.93;0.75;;;18.50;74.40;;;;;;6183977;23;20152;-81
2023/10/01 04:56:57;;;;;;;0.73;0.60;;;18.60;74.40;;;;;;6185034;23;20245;-80
2023/10/01 04:59:25;;;;;;;0.63;0.52;;;18.50;75.30;;;;;;6208445;23;20196;-80
2023/10/01 05:01:56;;;;;;;0.65;0.52;;;18.50;74.50;;;;;;6133189;23;20183;-80
2023/10/01 05:04:27;;;;;;;0.98;0.80;;;18.50;74.50;;;;;;6133716;23;20128;-80
2023/10/01 05:07:04;;;;;;;1.98;0.70;;;18.50;74.50;;;;;;6187666;23;20518;-83
2023/10/01 05:09:33;;;;;;;1.10;0.75;;;18.60;74.50;;;;;;6137190;23;20132;-80
2023/10/01 05:12:03;;;;;;;0.80;0.55;;;18.60;74.50;;;;;;6113245;23;20148;-80
2023/10/01 05:14:30;;;;;;;0.77;0.52;;;18.50;74.50;;;;;;6089549;23;20144;-79
2023/10/01 05:17:02;;;;;;;0.50;0.50;;;18.50;74.50;;;;;;6112218;23;20151;-80
2023/10/01 05:19:29;;;;;;;0.70;0.63;;;18.60;74.60;;;;;;6091581;23;20251;-80
2023/10/01 05:22:01;;;;;;;0.95;0.60;;;18.50;74.50;;;;;;6088944;23;20196;-80
2023/10/01 05:24:34;;;;;;;1.80;0.70;;;18.60;74.60;;;;;;6213444;23;20152;-80
2023/10/01 05:27:03;;;;;;;0.82;0.60;;;18.50;74.60;;;;;;6136872;23;20193;-80
2023/10/01 05:29:34;;;;;;;0.85;0.68;;;18.60;74.60;;;;;;6136905;23;20148;-80
2023/10/01 05:32:01;;;;;;;0.75;0.60;;;18.50;74.50;;;;;;6064003;23;20167;-80
2023/10/01 05:34:28;;;;;;;0.70;0.60;;;18.60;74.60;;;;;;6140079;23;20148;-80
2023/10/01 05:37:20;;;;;;;1.38;0.70;;;18.50;74.50;;;;;;6139914;23;20179;-79
2023/10/01 05:42:28;;;;;;;0.85;0.60;;;18.60;74.60;;;;;;6118540;23;20136;-79
2023/10/01 05:45:14;;;;;;;1.08;0.70;;;18.60;74.50;;;;;;6112925;23;20528;-81
2023/10/01 05:47:54;;;;;;;1.30;0.70;;;18.60;74.60;;;;;;6183179;23;20155;-80
2023/10/01 05:50:28;;;;;;;1.10;0.75;;;18.50;74.40;;;;;;6136635;23;20192;-79
2023/10/01 05:52:55;;;;;;;0.90;0.60;;;18.60;75.30;;;;;;6113269;23;20139;-81
2023/10/01 05:55:23;;;;;;;0.82;0.57;;;18.60;74.50;;;;;;6084177;23;20196;-79
2023/10/01 05:57:52;;;;;;;0.93;0.50;;;18.50;74.60;;;;;;6107601;23;20152;-81
2023/10/01 06:00:27;;;;;;;1.05;0.70;;;18.60;74.60;;;;;;6107821;23;20129;-79
2023/10/01 06:03:06;;;;;;;0.93;0.52;;;18.50;74.60;;;;;;6084551;23;20152;-79
2023/10/01 06:05:43;;;;;;;0.90;0.60;;;18.50;74.60;;;;;;6085532;23;20157;-80
2023/10/01 06:08:15;;;;;;;0.82;0.60;;;18.60;74.70;;;;;;6179633;23;20210;-80
2023/10/01 06:13:37;;;;;;;1.10;0.57;;;18.60;74.50;;;;;;6107859;23;20164;-80
2023/10/01 06:16:13;;;;;;;0.75;0.52;;;18.60;74.60;;;;;;6207049;23;20171;-80
2023/10/01 06:18:43;;;;;;;0.60;0.50;;;18.60;74.60;;;;;;6203784;23;20184;-79
2023/10/01 06:21:10;;;;;;;1.10;0.50;;;18.60;74.60;;;;;;6081942;23;20149;-80
2023/10/01 06:23:52;;;;;;;0.75;0.60;;;18.50;74.60;;;;;;6105756;23;20140;-80
2023/10/01 06:26:22;;;;;;;0.77;0.63;;;18.60;74.50;;;;;;6107093;23;20129;-81
2023/10/01 06:28:51;;;;;;;0.80;0.70;;;18.60;74.60;;;;;;6106413;23;20136;-80
2023/10/01 06:31:20;;;;;;;1.35;0.70;;;18.60;74.60;;;;;;6105625;23;20137;-80
2023/10/01 06:33:47;;;;;;;0.60;0.60;;;18.50;74.60;;;;;;6082559;23;20156;-80
2023/10/01 06:36:16;;;;;;;0.80;0.63;;;18.50;74.60;;;;;;6081729;23;20244;-80
2023/10/01 06:38:44;;;;;;;1.20;0.50;;;18.50;74.60;;;;;;6082356;23;20625;-80
2023/10/01 06:41:13;;;;;;;0.82;0.75;;;18.50;74.60;;;;;;6105892;23;20130;-80
2023/10/01 06:43:48;;;;;;;0.75;0.55;;;18.60;74.50;;;;;;6105599;23;20160;-80
2023/10/01 06:46:27;;;;;;;1.23;0.70;;;18.60;74.20;;;;;;6105819;23;20155;-80
2023/10/01 06:48:54;;;;;;;0.65;0.65;;;18.60;74.10;;;;;;6105340;23;20165;-80
2023/10/01 06:51:21;;;;;;;0.50;0.50;;;18.70;73.90;;;;;;6081768;23;20176;-81
2023/10/01 06:53:53;;;;;;;0.93;0.50;;;18.70;73.70;;;;;;6080981;23;20239;-80
2023/10/01 06:56:21;;;;;;;0.60;0.47;;;18.70;73.60;;;;;;6087275;23;20265;-80
2023/10/01 06:59:12;;;;;;;0.98;0.50;;;18.70;73.60;;;;;;6134045;23;20180;-80
2023/10/01 07:01:35;;;;;;;1.20;0.50;;;18.70;73.60;;;;;;6135702;23;20148;-79
2023/10/01 07:04:03;;;;;;;0.75;0.60;;;18.70;73.60;;;;;;6086363;23;20183;-80
2023/10/01 07:06:36;;;;;;;1.17;0.52;;;18.70;73.70;;;;;;6134474;23;20160;-80
2023/10/01 07:09:03;;;;;;;0.65;0.50;;;18.80;73.60;;;;;;6233819;23;20156;-81
2023/10/01 07:11:29;;;;;;;1.02;0.52;;;18.70;73.60;;;;;;6110246;23;20159;-80
2023/10/01 07:14:01;;;;;;;0.73;0.50;;;18.70;73.70;;;;;;6110188;23;20148;-79
2023/10/01 07:16:39;;;;;;;0.93;0.60;;;18.70;73.70;;;;;;6111492;23;20133;-80
2023/10/01 07:19:11;;;;;;;1.13;0.63;;;18.70;73.60;;;;;;6111546;23;20180;-81
2023/10/01 07:21:45;;;;;;;0.68;0.50;;;18.70;73.40;;;;;;6149540;23;20635;-80
2023/10/01 07:24:14;;;;;;;0.90;0.63;;;18.70;73.20;;;;;;6074817;23;20150;-82
2023/10/01 07:26:41;;;;;;;1.00;0.77;;;18.70;73.30;;;;;;6051328;23;20168;-80
2023/10/01 07:29:10;;;;;;;1.23;0.60;;;18.80;73.00;;;;;;6026204;23;20150;-80
2023/10/01 07:31:36;;;;;;;0.73;0.60;;;18.70;72.90;;;;;;6026795;23;20215;-80
2023/10/01 07:36:44;;;;;;;0.77;0.50;;;18.70;72.90;;;;;;6053194;23;20157;-80
2023/10/01 07:39:12;;;;;;;0.57;0.40;;;18.80;72.90;;;;;;6027209;23;20177;-80
2023/10/01 07:41:39;;;;;;;1.20;0.70;;;18.80;72.70;;;;;;6051093;23;20145;-80
2023/10/01 07:44:11;;;;;;;0.55;0.50;;;18.80;72.50;;;;;;6027005;23;20183;-80
2023/10/01 07:46:38;;;;;;;0.82;0.63;;;18.80;72.50;;;;;;6028051;23;20153;-80
2023/10/01 07:49:09;;;;;;;0.75;0.70;;;18.80;72.30;;;;;;6050704;23;20149;-80
2023/10/01 07:51:38;;;;;;;0.70;0.60;;;18.90;72.30;;;;;;6056173;23;20134;-85
2023/10/01 07:54:10;;;;;;;1.20;0.68;;;18.80;72.10;;;;;;6109721;23;20144;-80
2023/10/01 07:56:39;;;;;;;0.77;0.55;;;18.80;72.30;;;;;;6132688;22;20207;-80
2023/10/01 07:59:33;;;;;;;0.73;0.60;;;18.80;72.30;;;;;;6086149;23;20180;-80
2023/10/01 08:04:57;;;;;;;0.80;0.60;;;18.70;72.30;;;;;;6134681;23;20143;-81
2023/10/01 08:07:30;;;;;;;1.05;0.50;;;18.70;72.10;;;;;;6113136;23;20132;-81
2023/10/01 08:09:59;;;;;;;0.47;0.40;;;18.60;72.10;;;;;;6087890;23;20154;-80
2023/10/01 08:12:29;;;;;;;0.60;0.50;;;18.60;72.00;;;;;;6110826;23;20533;-80
2023/10/01 08:17:43;;;;;;;1.38;0.85;;;18.60;72.00;;;;;;6112437;23;20170;-80
2023/10/01 08:20:17;;;;;;;1.17;0.70;;;18.60;71.80;;;;;;6086660;23;20148;-81
2023/10/01 08:25:42;;;;;;;0.90;0.68;;;18.50;71.80;;;;;;6135604;23;20133;-81
2023/10/01 08:28:26;;;;;;;0.82;0.50;;;18.50;71.60;;;;;;6182015;23;20159;-80
2023/10/01 08:31:43;;;;;;;0.47;0.47;;;18.50;71.60;;;;;;6113186;23;20155;-81
2023/10/01 08:33:43;;;;;;;0.93;0.60;;;18.50;71.70;;;;;;6113084;23;20156;-81
2023/10/01 08:36:14;;;;;;;0.70;0.60;;;18.50;71.60;;;;;;6085148;23;20206;-81
2023/10/01 08:39:19;;;;;;;0.95;0.43;;;18.50;71.60;;;;;;6211455;23;20635;-81
2023/10/01 08:41:51;;;;;;;0.85;0.55;;;18.60;71.60;;;;;;6113279;23;20638;-81
2023/10/01 08:44:30;;;;;;;0.70;0.55;;;18.50;71.50;;;;;;6165869;23;20152;-82
2023/10/01 08:47:00;;;;;;;1.10;0.60;;;18.60;71.50;;;;;;6134029;23;20137;-81
2023/10/01 08:49:31;;;;;;;0.50;0.47;;;18.50;71.40;;;;;;6085831;23;20206;-82
2023/10/01 08:54:43;;;;;;;0.90;0.40;;;18.50;71.40;;;;;;6202779;22;20160;-81
2023/10/01 08:57:17;;;;;;;0.60;0.55;;;18.50;71.30;;;;;;6115725;23;20178;-80
2023/10/01 08:59:45;;;;;;;0.90;0.60;;;18.50;71.30;;;;;;6115952;23;20512;-81
2023/10/01 09:02:19;;;;;;;0.65;0.50;;;18.50;71.10;;;;;;6191055;23;20220;-81
2023/10/01 09:04:48;;;;;;;0.50;0.38;;;18.50;71.00;;;;;;6065223;23;20190;-81
2023/10/01 09:07:18;;;;;;;0.88;0.50;;;18.50;71.90;;;;;;6066104;23;20155;-81
2023/10/01 09:10:05;;;;;;;1.35;0.80;;;18.50;70.90;;;;;;6138612;23;20139;-78
2023/10/01 09:12:34;;;;;;;0.80;0.40;;;18.50;70.90;;;;;;6138619;23;20135;-81
2023/10/01 09:15:05;;;;;;;0.70;0.50;;;18.50;71.00;;;;;;6090685;23;20159;-81
2023/10/01 09:17:40;;;;;;;1.02;0.80;;;18.50;70.90;;;;;;6189750;23;20159;-80
2023/10/01 09:20:09;;;;;;;0.43;0.43;;;18.50;70.90;;;;;;6113316;23;20171;-83
2023/10/01 09:22:42;;;;;;;1.00;0.50;;;18.50;70.70;;;;;;6137703;23;20196;-85
2023/10/01 09:25:20;;;;;;;0.80;0.50;;;18.50;70.60;;;;;;6139517;23;20143;-80
2023/10/01 09:28:29;;;;;;;0.50;0.40;;;18.50;70.60;;;;;;6138508;23;20146;-81
2023/10/01 09:31:26;;;;;;;1.15;0.60;;;18.50;70.50;;;;;;6163998;23;20226;-81
2023/10/01 09:33:51;;;;;;;1.00;0.60;;;18.50;70.50;;;;;;6163752;23;20154;-83
2023/10/01 09:36:35;;;;;;;1.30;0.52;;;18.50;70.30;;;;;;6137076;23;20226;-82
2023/10/01 09:39:03;;;;;;;0.45;0.40;;;18.50;70.20;;;;;;6138645;23;20164;-80
2023/10/01 09:41:39;;;;;;;1.35;0.60;;;18.50;70.00;;;;;;6114259;23;20131;-80
2023/10/01 09:44:07;;;;;;;0.88;0.43;;;18.60;70.00;;;;;;6116342;23;20146;-80
2023/10/01 09:46:34;;;;;;;0.65;0.43;;;18.60;69.90;;;;;;6113729;23;20144;-81
2023/10/01 09:49:02;;;;;;;0.40;0.30;;;18.60;69.80;;;;;;6137925;23;20192;-80
2023/10/01 09:51:34;;;;;;;1.00;0.60;;;18.60;69.60;;;;;;6138656;23;20559;-80
2023/10/01 09:54:03;;;;;;;0.88;0.60;;;18.70;69.50;;;;;;6116265;23;20158;-81
2023/10/01 09:56:46;;;;;;;0.65;0.60;;;18.80;69.60;;;;;;6114723;23;20246;-81
2023/10/01 09:59:12;;;;;;;0.90;0.60;;;18.70;69.40;;;;;;6073804;23;20198;-81
2023/10/01 10:01:39;;;;;;;0.70;0.40;;;18.70;69.20;;;;;;6139208;23;20201;-79
2023/10/01 10:04:10;;;;;;;2.35;0.60;;;18.70;68.90;;;;;;6114781;23;20477;-81
2023/10/01 10:06:38;;;;;;;1.58;0.60;;;18.80;68.80;;;;;;6091250;23;20147;-80
2023/10/01 10:09:07;;;;;;;0.73;0.50;;;18.80;68.60;;;;;;6114106;23;20203;-80
2023/10/01 10:11:40;;;;;;;1.00;0.50;;;18.80;68.80;;;;;;6114510;23;20166;-80
2023/10/01 10:14:45;;;;;;;0.60;0.40;;;18.70;68.80;;;;;;6093176;23;20148;-80
2023/10/01 10:17:25;;;;;;;0.77;0.50;;;18.70;68.90;;;;;;6149807;23;20144;-80
2023/10/01 10:23:13;;;;;;;1.00;0.57;;;18.70;68.80;;;;;;6142201;23;20143;-80
2023/10/01 10:25:44;;;;;;;0.40;0.40;;;18.70;68.90;;;;;;6141099;23;20132;-80
2023/10/01 10:28:12;;;;;;;0.63;0.40;;;18.70;68.90;;;;;;6065845;23;20155;-80
2023/10/01 10:30:41;;;;;;;1.23;0.40;;;18.80;68.60;;;;;;6084775;23;20144;-85
2023/10/01 10:33:29;;;;;;;1.13;0.57;;;18.70;68.50;;;;;;6079084;23;20155;-85
2023/10/01 10:36:36;;;;;;;0.65;0.40;;;18.80;68.30;;;;;;6127003;23;20152;-84
2023/10/01 10:39:15;;;;;;;0.88;0.40;;;18.70;68.40;;;;;;6152321;23;20289;-84
2023/10/01 10:42:15;;;;;;;1.13;0.50;;;18.70;68.40;;;;;;6104591;23;20193;-85
2023/10/01 10:45:22;;;;;;;0.80;0.52;;;18.70;68.40;;;;;;6126898;23;20479;-86
2023/10/01 10:47:59;;;;;;;0.50;0.40;;;18.70;68.70;;;;;;6152777;23;20158;-84
2023/10/01 10:50:57;;;;;;;0.40;0.30;;;18.70;68.70;;;;;;6081180;23;20518;-85
2023/10/01 10:53:29;;;;;;;0.80;0.47;;;18.60;68.60;;;;;;6079723;23;20143;-85
2023/10/01 10:56:00;;;;;;;0.65;0.40;;;18.60;68.60;;;;;;6125705;22;20207;-86
2023/10/01 10:58:28;;;;;;;0.80;0.43;;;18.60;68.70;;;;;;6076602;23;20226;-85
2023/10/01 11:00:55;;;;;;;1.02;0.60;;;18.70;68.70;;;;;;6097980;23;20152;-85
2023/10/01 11:03:42;;;;;;;0.90;0.50;;;18.60;68.50;;;;;;6097440;23;20154;-84
2023/10/01 11:06:21;;;;;;;0.50;0.40;;;18.60;68.60;;;;;;6120858;23;20175;-85
2023/10/01 11:08:55;;;;;;;0.75;0.40;;;18.60;68.70;;;;;;6096971;23;20156;-84
2023/10/01 11:11:28;;;;;;;2.17;0.68;;;18.60;68.60;;;;;;6165235;23;20156;-85
2023/10/01 11:14:00;;;;;;;0.70;0.40;;;18.60;68.60;;;;;;6014576;23;20292;-86
2023/10/01 11:16:33;;;;;;;0.80;0.40;;;18.60;68.60;;;;;;6039869;23;20172;-85
2023/10/01 11:19:16;;;;;;;1.20;0.43;;;18.60;68.70;;;;;;6014554;23;20567;-85
2023/10/01 11:21:55;;;;;;;0.43;0.43;;;18.60;68.70;;;;;;6039373;23;20176;-86
2023/10/01 11:24:57;;;;;;;;;;;;;;;;;;;;;
2023/10/01 11:27:25;;;;;;;1.17;0.40;;;18.60;68.70;;;;;;6042475;23;20263;-83
2023/10/01 11:35:33;;;;;;;0.57;0.43;;;18.60;68.70;;;;;;6041419;23;20141;-83
2023/10/01 11:38:14;;;;;;;0.82;0.40;;;18.70;68.70;;;;;;6037452;23;20589;-83
2023/10/01 11:43:27;;;;;;;0.80;0.47;;;18.60;68.50;;;;;;6092325;23;20290;-81
2023/10/01 11:46:23;;;;;;;0.60;0.47;;;18.70;68.60;;;;;;6080922;23;20218;-84
2023/10/01 11:49:15;;;;;;;1.00;0.60;;;18.70;68.60;;;;;;6126472;23;20742;-82
2023/10/01 11:51:44;;;;;;;0.93;0.60;;;18.60;68.50;;;;;;6127004;23;20140;-85
2023/10/01 11:54:12;;;;;;;1.55;0.40;;;18.60;68.50;;;;;;6126492;23;20163;-82
2023/10/01 11:56:40;;;;;;;0.90;0.50;;;18.70;68.60;;;;;;6120227;22;20210;-82
2023/10/01 11:59:10;;;;;;;1.38;0.57;;;18.70;68.60;;;;;;6096009;23;20171;-83
2023/10/01 12:01:48;;;;;;;0.75;0.40;;;18.70;68.50;;;;;;6120999;23;20529;-83
2023/10/01 12:07:00;;;;;;;1.33;0.60;;;18.70;68.50;;;;;;6121396;23;20614;-81
2023/10/01 12:09:39;;;;;;;0.88;0.50;;;18.70;68.50;;;;;;6072856;23;20156;-84
2023/10/01 12:12:08;;;;;;;0.93;0.40;;;18.80;68.50;;;;;;6120787;23;20137;-83
2023/10/01 12:14:52;;;;;;;0.73;0.40;;;18.70;68.40;;;;;;6197766;23;20661;-82
2023/10/01 12:17:23;;;;;;;0.60;0.43;;;18.80;68.50;;;;;;6100286;23;20163;-84
2023/10/01 12:19:54;;;;;;;1.33;0.50;;;18.70;68.50;;;;;;6072685;23;20257;-82
2023/10/01 12:22:27;;;;;;;0.90;0.50;;;18.70;68.70;;;;;;6195585;23;20240;-84
2023/10/01 12:24:58;;;;;;;1.10;0.38;;;18.70;68.80;;;;;;6097020;23;20156;-84
2023/10/01 12:27:40;;;;;;;1.77;0.82;;;18.70;68.90;;;;;;6120338;23;20588;-81
2023/10/01 12:30:11;;;;;;;1.08;0.50;;;18.70;68.90;;;;;;6097798;23;20136;-83
2023/10/01 12:32:41;;;;;;;2.60;0.60;;;18.70;69.00;;;;;;6120071;23;20175;-82
2023/10/01 12:35:18;;;;;;;0.88;0.50;;;18.70;69.00;;;;;;6119966;23;20207;-82
2023/10/01 12:37:45;;;;;;;0.80;0.50;;;18.70;69.10;;;;;;6097464;23;20517;-82
2023/10/01 12:40:16;;;;;;;0.40;0.40;;;18.70;69.10;;;;;;6119861;23;20180;-79
2023/10/01 12:42:50;;;;;;;0.77;0.50;;;18.70;69.20;;;;;;6119931;23;20128;-84
2023/10/01 12:45:19;;;;;;;0.98;0.60;;;18.70;69.20;;;;;;6098133;23;20136;-82
2023/10/01 12:47:51;;;;;;;0.63;0.50;;;18.70;69.30;;;;;;6120518;23;20155;-82
2023/10/01 12:50:26;;;;;;;0.65;0.50;;;18.70;69.30;;;;;;6074183;23;20144;-83
2023/10/01 12:55:51;;;;;;;0.50;0.50;;;18.70;69.30;;;;;;6185950;23;20199;-85
2023/10/01 12:58:18;;;;;;;0.77;0.52;;;18.70;69.30;;;;;;6119832;23;20494;-85
2023/10/01 13:00:45;;;;;;;1.00;0.70;;;18.70;69.20;;;;;;6095521;23;20162;-84
2023/10/01 13:03:16;;;;;;;1.27;0.70;;;18.60;69.20;;;;;;6122306;23;20159;-80
2023/10/01 13:05:50;;;;;;;1.02;0.70;;;18.70;69.30;;;;;;6097981;23;20156;-83
2023/10/01 13:08:27;;;;;;;0.80;0.50;;;18.70;69.40;;;;;;6074128;23;20171;-85
2023/10/01 13:10:55;;;;;;;0.55;0.50;;;18.70;69.40;;;;;;6077421;23;20160;-84
2023/10/01 13:13:31;;;;;;;1.00;0.60;;;18.70;69.40;;;;;;6121248;23;20147;-83
2023/10/01 13:15:58;;;;;;;1.67;0.60;;;18.70;69.40;;;;;;6123194;23;20139;-85
2023/10/01 13:18:28;;;;;;;1.38;0.60;;;18.60;69.40;;;;;;6096884;23;20184;-82
2023/10/01 13:20:59;;;;;;;1.00;0.52;;;18.60;69.40;;;;;;6122705;23;20568;-85
2023/10/01 13:23:25;;;;;;;0.90;0.50;;;18.60;69.40;;;;;;6122461;23;20133;-81
2023/10/01 13:28:43;;;;;;;0.52;0.30;;;18.60;69.60;;;;;;6125074;23;20137;-80
2023/10/01 13:31:51;;;;;;;1.90;0.60;;;18.60;69.60;;;;;;6080206;23;20498;-80
2023/10/01 13:39:26;;;;;;;0.65;0.55;;;18.70;69.60;;;;;;6122369;23;20168;-81
2023/10/01 14:08:50;;;;;;;0.70;0.50;;;18.70;69.70;;;;;;6186010;23;20156;-84
2023/10/01 14:11:17;;;;;;;1.63;0.60;;;18.70;70.50;;;;;;6120442;23;20140;-84
2023/10/01 14:13:46;;;;;;;0.60;0.32;;;18.60;69.70;;;;;;6096293;23;20136;-83
2023/10/01 14:18:54;;;;;;;0.60;0.40;;;18.60;69.70;;;;;;6097935;23;20514;-85
2023/10/01 14:21:22;;;;;;;0.95;0.50;;;18.60;69.60;;;;;;6096586;23;20148;-84
2023/10/01 14:23:52;;;;;;;0.95;0.50;;;18.60;69.60;;;;;;6121484;23;20147;-85
2023/10/01 14:26:26;;;;;;;1.02;0.40;;;18.60;69.60;;;;;;6096647;23;20221;-83
2023/10/01 14:28:55;;;;;;;0.30;0.30;;;18.60;69.60;;;;;;6120683;23;20139;-84
2023/10/01 14:34:03;;;;;;;3.15;0.70;;;18.60;69.60;;;;;;6121800;23;20140;-83
2023/10/01 14:36:29;;;;;;;1.13;0.70;;;18.60;69.60;;;;;;6121094;23;20216;-84
2023/10/01 14:38:58;;;;;;;0.80;0.43;;;18.60;69.60;;;;;;6096636;23;20168;-83
2023/10/01 14:41:24;;;;;;;1.17;0.50;;;18.70;69.60;;;;;;6098241;23;20132;-83
2023/10/01 14:43:51;;;;;;;1.52;0.43;;;18.60;69.60;;;;;;6123091;23;20182;-82
2023/10/01 14:46:19;;;;;;;0.63;0.40;;;18.60;69.60;;;;;;6096151;23;20148;-84
2023/10/01 14:48:46;;;;;;;1.20;0.50;;;18.60;69.60;;;;;;6120092;23;20326;-84